sensor_id;sensor_type;location;lat;lon;timestamp;temperature;humidity
79439;DHT22;68889;48.232;10.110;2023-10-08T00:00:26;15.80;80.10
79439;DHT22;68889;48.232;10.110;2023-10-08T00:03:10;15.80;80.30
79439;DHT22;68889;48.232;10.110;2023-10-08T00:05:37;15.80;80.10
79439;DHT22;68889;48.232;10.110;2023-10-08T00:08:03;15.70;80.30
79439;DHT22;68889;48.232;10.110;2023-10-08T00:10:37;15.70;80.40
79439;DHT22;68889;48.232;10.110;2023-10-08T00:13:05;15.70;80.40
79439;DHT22;68889;48.232;10.110;2023-10-08T00:15:34;15.70;80.20
79439;DHT22;68889;48.232;10.110;2023-10-08T00:18:02;15.80;80.40
79439;DHT22;68889;48.232;10.110;2023-10-08T00:20:28;15.80;80.10
79439;DHT22;68889;48.232;10.110;2023-10-08T00:22:54;15.80;80.00
79439;DHT22;68889;48.232;10.110;2023-10-08T00:25:21;15.80;79.60
79439;DHT22;68889;48.232;10.110;2023-10-08T00:27:47;15.80;79.40
79439;DHT22;68889;48.232;10.110;2023-10-08T00:30:16;15.80;79.40
79439;DHT22;68889;48.232;10.110;2023-10-08T00:32:44;15.90;79.50
79439;DHT22;68889;48.232;10.110;2023-10-08T00:35:10;15.90;79.10
79439;DHT22;68889;48.232;10.110;2023-10-08T00:37:40;15.90;78.60
79439;DHT22;68889;48.232;10.110;2023-10-08T00:40:06;15.90;78.30
79439;DHT22;68889;48.232;10.110;2023-10-08T00:42:40;15.90;78.50
79439;DHT22;68889;48.232;10.110;2023-10-08T00:45:11;15.90;78.70
79439;DHT22;68889;48.232;10.110;2023-10-08T00:47:41;15.80;78.10
79439;DHT22;68889;48.232;10.110;2023-10-08T00:50:10;15.80;78.70
79439;DHT22;68889;48.232;10.110;2023-10-08T00:52:47;15.80;78.20
79439;DHT22;68889;48.232;10.110;2023-10-08T00:55:25;15.80;77.40
79439;DHT22;68889;48.232;10.110;2023-10-08T00:57:57;15.90;78.60
79439;DHT22;68889;48.232;10.110;2023-10-08T01:00:25;15.80;77.10
79439;DHT22;68889;48.232;10.110;2023-10-08T01:02:58;15.90;77.90
79439;DHT22;68889;48.232;10.110;2023-10-08T01:05:27;15.90;77.40
79439;DHT22;68889;48.232;10.110;2023-10-08T01:08:08;15.80;77.70
79439;DHT22;68889;48.232;10.110;2023-10-08T01:10:38;15.90;77.00
79439;DHT22;68889;48.232;10.110;2023-10-08T01:13:05;15.90;76.30
79439;DHT22;68889;48.232;10.110;2023-10-08T01:15:32;15.90;76.80
79439;DHT22;68889;48.232;10.110;2023-10-08T01:18:01;15.90;76.00
79439;DHT22;68889;48.232;10.110;2023-10-08T01:20:29;16.00;76.50
79439;DHT22;68889;48.232;10.110;2023-10-08T01:23:15;16.00;75.80
79439;DHT22;68889;48.232;10.110;2023-10-08T01:25:46;16.00;75.10
79439;DHT22;68889;48.232;10.110;2023-10-08T01:28:36;16.00;75.40
79439;DHT22;68889;48.232;10.110;2023-10-08T01:31:02;16.00;75.10
79439;DHT22;68889;48.232;10.110;2023-10-08T01:33:30;16.00;75.60
79439;DHT22;68889;48.232;10.110;2023-10-08T01:35:57;16.00;75.00
79439;DHT22;68889;48.232;10.110;2023-10-08T01:38:29;16.00;74.90
79439;DHT22;68889;48.232;10.110;2023-10-08T01:40:56;16.00;75.00
79439;DHT22;68889;48.232;10.110;2023-10-08T01:43:22;16.10;74.50
79439;DHT22;68889;48.232;10.110;2023-10-08T01:45:48;16.10;74.60
79439;DHT22;68889;48.232;10.110;2023-10-08T01:48:15;16.10;75.10
79439;DHT22;68889;48.232;10.110;2023-10-08T01:50:55;16.10;74.60
79439;DHT22;68889;48.232;10.110;2023-10-08T01:53:21;16.20;74.10
79439;DHT22;68889;48.232;10.110;2023-10-08T01:55:47;16.20;74.00
79439;DHT22;68889;48.232;10.110;2023-10-08T01:58:17;16.20;74.10
79439;DHT22;68889;48.232;10.110;2023-10-08T02:00:44;16.30;74.50
79439;DHT22;68889;48.232;10.110;2023-10-08T02:03:11;16.30;73.60
79439;DHT22;68889;48.232;10.110;2023-10-08T02:05:37;16.30;73.00
79439;DHT22;68889;48.232;10.110;2023-10-08T02:08:08;16.20;73.20
79439;DHT22;68889;48.232;10.110;2023-10-08T02:10:33;16.20;74.20
79439;DHT22;68889;48.232;10.110;2023-10-08T02:13:01;16.20;73.80
79439;DHT22;68889;48.232;10.110;2023-10-08T02:15:27;16.20;74.50
79439;DHT22;68889;48.232;10.110;2023-10-08T02:17:53;16.20;73.60
79439;DHT22;68889;48.232;10.110;2023-10-08T02:20:20;16.20;73.30
79439;DHT22;68889;48.232;10.110;2023-10-08T02:22:47;16.20;72.80
79439;DHT22;68889;48.232;10.110;2023-10-08T02:25:15;16.30;73.00
79439;DHT22;68889;48.232;10.110;2023-10-08T02:27:40;16.30;72.20
79439;DHT22;68889;48.232;10.110;2023-10-08T02:30:07;16.30;72.20
79439;DHT22;68889;48.232;10.110;2023-10-08T02:32:35;16.30;72.40
79439;DHT22;68889;48.232;10.110;2023-10-08T02:35:02;16.30;72.50
79439;DHT22;68889;48.232;10.110;2023-10-08T02:37:28;16.30;71.80
79439;DHT22;68889;48.232;10.110;2023-10-08T02:39:54;16.30;72.40
79439;DHT22;68889;48.232;10.110;2023-10-08T02:42:20;16.30;72.10
79439;DHT22;68889;48.232;10.110;2023-10-08T02:44:47;16.40;72.10
79439;DHT22;68889;48.232;10.110;2023-10-08T02:47:12;16.30;71.30
79439;DHT22;68889;48.232;10.110;2023-10-08T02:49:46;16.40;71.40
79439;DHT22;68889;48.232;10.110;2023-10-08T02:52:14;16.40;71.90
79439;DHT22;68889;48.232;10.110;2023-10-08T02:54:41;16.40;71.90
79439;DHT22;68889;48.232;10.110;2023-10-08T02:57:07;16.30;71.90
79439;DHT22;68889;48.232;10.110;2023-10-08T02:59:39;16.30;71.40
79439;DHT22;68889;48.232;10.110;2023-10-08T03:02:15;16.30;71.80
79439;DHT22;68889;48.232;10.110;2023-10-08T03:04:45;16.20;71.10
79439;DHT22;68889;48.232;10.110;2023-10-08T03:07:14;16.20;71.60
79439;DHT22;68889;48.232;10.110;2023-10-08T03:09:58;16.10;71.80
79439;DHT22;68889;48.232;10.110;2023-10-08T03:12:32;16.10;71.80
79439;DHT22;68889;48.232;10.110;2023-10-08T03:15:02;16.00;72.20
79439;DHT22;68889;48.232;10.110;2023-10-08T03:17:37;15.90;75.00
79439;DHT22;68889;48.232;10.110;2023-10-08T03:20:15;15.80;75.80
79439;DHT22;68889;48.232;10.110;2023-10-08T03:22:55;15.60;77.60
79439;DHT22;68889;48.232;10.110;2023-10-08T03:25:22;15.50;75.10
79439;DHT22;68889;48.232;10.110;2023-10-08T03:27:50;15.40;75.00
79439;DHT22;68889;48.232;10.110;2023-10-08T03:30:15;15.30;74.00
79439;DHT22;68889;48.232;10.110;2023-10-08T03:32:42;15.30;77.80
79439;DHT22;68889;48.232;10.110;2023-10-08T03:35:10;15.10;78.70
79439;DHT22;68889;48.232;10.110;2023-10-08T03:37:36;15.00;75.90
79439;DHT22;68889;48.232;10.110;2023-10-08T03:40:07;15.00;73.80
79439;DHT22;68889;48.232;10.110;2023-10-08T03:42:55;15.10;74.00
79439;DHT22;68889;48.232;10.110;2023-10-08T03:45:21;15.10;74.50
79439;DHT22;68889;48.232;10.110;2023-10-08T03:48:06;15.10;75.10
79439;DHT22;68889;48.232;10.110;2023-10-08T03:50:33;15.10;75.20
79439;DHT22;68889;48.232;10.110;2023-10-08T03:53:07;15.10;75.20
79439;DHT22;68889;48.232;10.110;2023-10-08T03:55:40;15.10;75.00
79439;DHT22;68889;48.232;10.110;2023-10-08T03:58:07;15.20;73.20
79439;DHT22;68889;48.232;10.110;2023-10-08T04:00:39;15.30;73.70
79439;DHT22;68889;48.232;10.110;2023-10-08T04:03:08;15.30;73.50
79439;DHT22;68889;48.232;10.110;2023-10-08T04:05:36;15.30;73.00
79439;DHT22;68889;48.232;10.110;2023-10-08T04:08:21;15.30;73.30
79439;DHT22;68889;48.232;10.110;2023-10-08T04:11:00;15.30;73.30
79439;DHT22;68889;48.232;10.110;2023-10-08T04:13:47;15.30;74.80
79439;DHT22;68889;48.232;10.110;2023-10-08T04:16:14;15.20;78.70
79439;DHT22;68889;48.232;10.110;2023-10-08T04:18:45;15.00;79.20
79439;DHT22;68889;48.232;10.110;2023-10-08T04:21:11;14.90;79.50
79439;DHT22;68889;48.232;10.110;2023-10-08T04:23:41;14.80;80.40
79439;DHT22;68889;48.232;10.110;2023-10-08T04:26:10;14.70;80.40
79439;DHT22;68889;48.232;10.110;2023-10-08T04:28:35;14.70;80.30
79439;DHT22;68889;48.232;10.110;2023-10-08T04:31:03;14.60;80.40
79439;DHT22;68889;48.232;10.110;2023-10-08T04:33:44;14.60;81.50
79439;DHT22;68889;48.232;10.110;2023-10-08T04:36:10;14.50;81.30
79439;DHT22;68889;48.232;10.110;2023-10-08T04:38:43;14.40;80.90
79439;DHT22;68889;48.232;10.110;2023-10-08T04:41:11;14.40;81.60
79439;DHT22;68889;48.232;10.110;2023-10-08T04:43:37;14.30;82.40
79439;DHT22;68889;48.232;10.110;2023-10-08T04:46:08;14.20;81.70
79439;DHT22;68889;48.232;10.110;2023-10-08T04:48:48;14.10;82.10
79439;DHT22;68889;48.232;10.110;2023-10-08T04:51:17;14.00;81.90
79439;DHT22;68889;48.232;10.110;2023-10-08T04:53:43;14.00;81.90
79439;DHT22;68889;48.232;10.110;2023-10-08T04:56:13;14.00;82.30
79439;DHT22;68889;48.232;10.110;2023-10-08T04:58:40;13.90;82.50
79439;DHT22;68889;48.232;10.110;2023-10-08T05:01:07;13.90;82.30
79439;DHT22;68889;48.232;10.110;2023-10-08T05:03:53;13.80;82.10
79439;DHT22;68889;48.232;10.110;2023-10-08T05:06:29;13.70;82.50
79439;DHT22;68889;48.232;10.110;2023-10-08T05:09:09;13.70;82.40
79439;DHT22;68889;48.232;10.110;2023-10-08T05:11:39;13.70;82.30
79439;DHT22;68889;48.232;10.110;2023-10-08T05:14:23;13.70;81.70
79439;DHT22;68889;48.232;10.110;2023-10-08T05:16:59;13.70;80.10
79439;DHT22;68889;48.232;10.110;2023-10-08T05:19:50;13.70;79.60
79439;DHT22;68889;48.232;10.110;2023-10-08T05:22:36;13.70;80.40
79439;DHT22;68889;48.232;10.110;2023-10-08T05:25:02;13.80;79.20
79439;DHT22;68889;48.232;10.110;2023-10-08T05:27:53;13.90;79.80
79439;DHT22;68889;48.232;10.110;2023-10-08T05:30:20;14.00;78.50
79439;DHT22;68889;48.232;10.110;2023-10-08T05:33:05;14.00;78.60
79439;DHT22;68889;48.232;10.110;2023-10-08T05:35:35;14.10;77.90
79439;DHT22;68889;48.232;10.110;2023-10-08T05:38:18;14.10;78.20
79439;DHT22;68889;48.232;10.110;2023-10-08T05:40:56;14.20;77.80
79439;DHT22;68889;48.232;10.110;2023-10-08T05:43:36;14.20;77.30
79439;DHT22;68889;48.232;10.110;2023-10-08T05:48:54;14.30;77.30
79439;DHT22;68889;48.232;10.110;2023-10-08T05:51:29;14.30;76.50
79439;DHT22;68889;48.232;10.110;2023-10-08T05:54:15;14.40;77.20
79439;DHT22;68889;48.232;10.110;2023-10-08T05:59:38;14.50;76.70
79439;DHT22;68889;48.232;10.110;2023-10-08T06:02:39;14.60;75.80
79439;DHT22;68889;48.232;10.110;2023-10-08T06:05:08;14.70;75.70
79439;DHT22;68889;48.232;10.110;2023-10-08T06:07:44;14.70;76.50
79439;DHT22;68889;48.232;10.110;2023-10-08T06:10:15;14.70;76.50
79439;DHT22;68889;48.232;10.110;2023-10-08T06:15:45;14.80;75.90
79439;DHT22;68889;48.232;10.110;2023-10-08T06:18:15;14.90;76.90
79439;DHT22;68889;48.232;10.110;2023-10-08T06:20:42;14.90;78.60
79439;DHT22;68889;48.232;10.110;2023-10-08T06:23:14;14.80;78.30
79439;DHT22;68889;48.232;10.110;2023-10-08T06:25:49;14.80;79.90
79439;DHT22;68889;48.232;10.110;2023-10-08T06:28:33;14.80;77.60
79439;DHT22;68889;48.232;10.110;2023-10-08T06:31:03;14.80;77.90
79439;DHT22;68889;48.232;10.110;2023-10-08T06:33:37;14.90;77.00
79439;DHT22;68889;48.232;10.110;2023-10-08T06:36:04;15.00;77.00
79439;DHT22;68889;48.232;10.110;2023-10-08T06:38:50;15.10;76.30
79439;DHT22;68889;48.232;10.110;2023-10-08T06:41:17;15.20;76.20
79439;DHT22;68889;48.232;10.110;2023-10-08T06:43:49;15.30;76.80
79439;DHT22;68889;48.232;10.110;2023-10-08T06:46:16;15.40;75.80
79439;DHT22;68889;48.232;10.110;2023-10-08T06:48:45;15.50;75.40
79439;DHT22;68889;48.232;10.110;2023-10-08T06:51:12;15.50;76.50
79439;DHT22;68889;48.232;10.110;2023-10-08T06:53:44;15.50;75.50
79439;DHT22;68889;48.232;10.110;2023-10-08T06:56:10;15.60;75.00
79439;DHT22;68889;48.232;10.110;2023-10-08T06:58:38;15.60;75.30
79439;DHT22;68889;48.232;10.110;2023-10-08T07:01:05;15.70;75.30
79439;DHT22;68889;48.232;10.110;2023-10-08T07:03:31;15.70;75.00
79439;DHT22;68889;48.232;10.110;2023-10-08T07:05:57;15.70;75.00
79439;DHT22;68889;48.232;10.110;2023-10-08T07:08:28;15.70;74.50
79439;DHT22;68889;48.232;10.110;2023-10-08T07:10:57;15.80;73.70
79439;DHT22;68889;48.232;10.110;2023-10-08T07:13:24;15.90;75.10
79439;DHT22;68889;48.232;10.110;2023-10-08T07:15:51;15.90;73.80
79439;DHT22;68889;48.232;10.110;2023-10-08T07:18:18;15.90;74.50
79439;DHT22;68889;48.232;10.110;2023-10-08T07:20:51;16.00;74.10
79439;DHT22;68889;48.232;10.110;2023-10-08T07:23:20;16.10;73.10
79439;DHT22;68889;48.232;10.110;2023-10-08T07:25:58;16.30;72.70
79439;DHT22;68889;48.232;10.110;2023-10-08T07:28:42;16.40;71.30
79439;DHT22;68889;48.232;10.110;2023-10-08T07:31:18;16.60;71.80
79439;DHT22;68889;48.232;10.110;2023-10-08T07:33:53;16.70;70.40
79439;DHT22;68889;48.232;10.110;2023-10-08T07:36:26;16.90;69.90
79439;DHT22;68889;48.232;10.110;2023-10-08T07:38:56;17.00;69.90
79439;DHT22;68889;48.232;10.110;2023-10-08T07:41:22;17.20;71.60
79439;DHT22;68889;48.232;10.110;2023-10-08T07:43:49;17.30;70.10
79439;DHT22;68889;48.232;10.110;2023-10-08T07:46:21;17.40;69.20
79439;DHT22;68889;48.232;10.110;2023-10-08T07:48:47;17.50;69.10
79439;DHT22;68889;48.232;10.110;2023-10-08T07:51:14;17.60;68.50
79439;DHT22;68889;48.232;10.110;2023-10-08T07:53:40;17.70;68.50
79439;DHT22;68889;48.232;10.110;2023-10-08T07:56:08;17.80;69.00
79439;DHT22;68889;48.232;10.110;2023-10-08T07:58:34;17.90;68.90
79439;DHT22;68889;48.232;10.110;2023-10-08T08:01:07;17.90;68.10
79439;DHT22;68889;48.232;10.110;2023-10-08T08:03:35;18.00;67.40
79439;DHT22;68889;48.232;10.110;2023-10-08T08:06:05;18.20;67.60
79439;DHT22;68889;48.232;10.110;2023-10-08T08:08:32;18.30;68.10
79439;DHT22;68889;48.232;10.110;2023-10-08T08:11:02;18.40;66.60
79439;DHT22;68889;48.232;10.110;2023-10-08T08:13:34;18.50;67.50
79439;DHT22;68889;48.232;10.110;2023-10-08T08:16:00;18.60;67.80
79439;DHT22;68889;48.232;10.110;2023-10-08T08:18:36;18.70;67.80
79439;DHT22;68889;48.232;10.110;2023-10-08T08:21:02;18.90;66.00
79439;DHT22;68889;48.232;10.110;2023-10-08T08:23:31;19.00;67.80
79439;DHT22;68889;48.232;10.110;2023-10-08T08:25:57;19.10;66.20
79439;DHT22;68889;48.232;10.110;2023-10-08T08:28:37;19.20;67.00
79439;DHT22;68889;48.232;10.110;2023-10-08T08:31:03;19.50;67.60
79439;DHT22;68889;48.232;10.110;2023-10-08T08:33:55;19.60;66.00
79439;DHT22;68889;48.232;10.110;2023-10-08T08:36:41;19.80;67.20
79439;DHT22;68889;48.232;10.110;2023-10-08T08:39:12;19.90;66.20
79439;DHT22;68889;48.232;10.110;2023-10-08T08:41:50;19.80;65.00
79439;DHT22;68889;48.232;10.110;2023-10-08T08:44:19;19.80;65.90
79439;DHT22;68889;48.232;10.110;2023-10-08T08:46:46;19.70;66.60
79439;DHT22;68889;48.232;10.110;2023-10-08T08:49:13;19.60;66.50
79439;DHT22;68889;48.232;10.110;2023-10-08T08:51:38;19.60;65.90
79439;DHT22;68889;48.232;10.110;2023-10-08T08:54:05;19.60;66.60
79439;DHT22;68889;48.232;10.110;2023-10-08T08:56:41;19.50;67.30
79439;DHT22;68889;48.232;10.110;2023-10-08T08:59:09;19.50;67.00
79439;DHT22;68889;48.232;10.110;2023-10-08T09:01:39;19.50;68.50
79439;DHT22;68889;48.232;10.110;2023-10-08T09:04:05;19.50;67.20
79439;DHT22;68889;48.232;10.110;2023-10-08T09:06:34;19.70;68.60
79439;DHT22;68889;48.232;10.110;2023-10-08T09:09:01;19.80;67.40
79439;DHT22;68889;48.232;10.110;2023-10-08T09:11:45;20.00;67.10
79439;DHT22;68889;48.232;10.110;2023-10-08T09:14:11;20.20;68.70
79439;DHT22;68889;48.232;10.110;2023-10-08T09:16:36;20.50;68.30
79439;DHT22;68889;48.232;10.110;2023-10-08T09:19:02;20.70;65.80
79439;DHT22;68889;48.232;10.110;2023-10-08T09:21:28;20.90;65.60
79439;DHT22;68889;48.232;10.110;2023-10-08T09:23:55;21.00;65.40
79439;DHT22;68889;48.232;10.110;2023-10-08T09:26:25;21.00;65.60
79439;DHT22;68889;48.232;10.110;2023-10-08T09:28:52;21.00;62.70
79439;DHT22;68889;48.232;10.110;2023-10-08T09:31:18;20.90;64.90
79439;DHT22;68889;48.232;10.110;2023-10-08T09:33:55;21.00;65.40
79439;DHT22;68889;48.232;10.110;2023-10-08T09:36:21;21.10;65.80
79439;DHT22;68889;48.232;10.110;2023-10-08T09:39:01;21.10;63.50
79439;DHT22;68889;48.232;10.110;2023-10-08T09:41:31;21.40;64.90
79439;DHT22;68889;48.232;10.110;2023-10-08T09:43:58;21.80;66.10
79439;DHT22;68889;48.232;10.110;2023-10-08T09:46:31;22.20;62.40
79439;DHT22;68889;48.232;10.110;2023-10-08T09:49:02;22.50;64.90
79439;DHT22;68889;48.232;10.110;2023-10-08T09:51:33;22.70;61.90
79439;DHT22;68889;48.232;10.110;2023-10-08T09:54:18;22.60;61.10
79439;DHT22;68889;48.232;10.110;2023-10-08T09:56:45;22.60;61.60
79439;DHT22;68889;48.232;10.110;2023-10-08T09:59:12;22.30;61.80
79439;DHT22;68889;48.232;10.110;2023-10-08T10:01:41;22.10;61.10
79439;DHT22;68889;48.232;10.110;2023-10-08T10:04:11;22.20;62.40
79439;DHT22;68889;48.232;10.110;2023-10-08T10:06:37;22.40;62.50
79439;DHT22;68889;48.232;10.110;2023-10-08T10:09:04;22.50;60.30
79439;DHT22;68889;48.232;10.110;2023-10-08T10:11:33;22.60;62.20
79439;DHT22;68889;48.232;10.110;2023-10-08T10:14:00;22.90;61.80
79439;DHT22;68889;48.232;10.110;2023-10-08T10:16:26;23.00;61.40
79439;DHT22;68889;48.232;10.110;2023-10-08T10:18:59;23.10;60.20
79439;DHT22;68889;48.232;10.110;2023-10-08T10:21:29;23.10;62.30
79439;DHT22;68889;48.232;10.110;2023-10-08T10:23:56;23.20;61.00
79439;DHT22;68889;48.232;10.110;2023-10-08T10:26:29;23.20;60.50
79439;DHT22;68889;48.232;10.110;2023-10-08T10:31:38;23.10;60.30
79439;DHT22;68889;48.232;10.110;2023-10-08T10:34:07;22.80;60.40
79439;DHT22;68889;48.232;10.110;2023-10-08T10:36:37;22.60;63.00
79439;DHT22;68889;48.232;10.110;2023-10-08T10:39:06;22.50;62.60
79439;DHT22;68889;48.232;10.110;2023-10-08T10:41:41;22.30;62.40
79439;DHT22;68889;48.232;10.110;2023-10-08T10:44:07;22.20;64.40
79439;DHT22;68889;48.232;10.110;2023-10-08T10:46:34;22.20;62.50
79439;DHT22;68889;48.232;10.110;2023-10-08T10:49:06;22.00;63.20
79439;DHT22;68889;48.232;10.110;2023-10-08T10:51:48;21.90;64.20
79439;DHT22;68889;48.232;10.110;2023-10-08T10:54:16;21.70;64.20
79439;DHT22;68889;48.232;10.110;2023-10-08T10:56:47;21.60;65.20
79439;DHT22;68889;48.232;10.110;2023-10-08T10:59:13;21.50;64.30
79439;DHT22;68889;48.232;10.110;2023-10-08T11:01:50;21.50;66.60
79439;DHT22;68889;48.232;10.110;2023-10-08T11:04:30;21.50;66.20
79439;DHT22;68889;48.232;10.110;2023-10-08T11:06:56;21.50;66.70
79439;DHT22;68889;48.232;10.110;2023-10-08T11:09:24;21.50;65.20
79439;DHT22;68889;48.232;10.110;2023-10-08T11:12:13;21.60;66.50
79439;DHT22;68889;48.232;10.110;2023-10-08T11:14:40;21.60;66.50
79439;DHT22;68889;48.232;10.110;2023-10-08T11:17:15;21.60;66.70
79439;DHT22;68889;48.232;10.110;2023-10-08T11:19:44;21.70;66.90
79439;DHT22;68889;48.232;10.110;2023-10-08T11:22:14;21.60;66.10
79439;DHT22;68889;48.232;10.110;2023-10-08T11:24:46;21.60;66.20
79439;DHT22;68889;48.232;10.110;2023-10-08T11:27:19;21.70;67.30
79439;DHT22;68889;48.232;10.110;2023-10-08T11:29:55;21.70;66.30
79439;DHT22;68889;48.232;10.110;2023-10-08T11:32:26;21.80;66.30
79439;DHT22;68889;48.232;10.110;2023-10-08T11:34:59;22.00;66.90
79439;DHT22;68889;48.232;10.110;2023-10-08T11:37:29;22.00;65.70
79439;DHT22;68889;48.232;10.110;2023-10-08T11:39:56;22.00;65.80
79439;DHT22;68889;48.232;10.110;2023-10-08T11:42:28;22.00;66.10
79439;DHT22;68889;48.232;10.110;2023-10-08T11:45:03;21.90;65.80
79439;DHT22;68889;48.232;10.110;2023-10-08T11:47:45;22.00;66.00
79439;DHT22;68889;48.232;10.110;2023-10-08T11:50:14;22.10;66.30
79439;DHT22;68889;48.232;10.110;2023-10-08T11:52:43;22.10;68.60
79439;DHT22;68889;48.232;10.110;2023-10-08T11:55:12;22.20;66.70
79439;DHT22;68889;48.232;10.110;2023-10-08T11:57:48;22.20;65.80
79439;DHT22;68889;48.232;10.110;2023-10-08T12:00:16;22.20;66.10
79439;DHT22;68889;48.232;10.110;2023-10-08T12:02:46;22.10;66.20
79439;DHT22;68889;48.232;10.110;2023-10-08T12:05:12;22.10;65.90
79439;DHT22;68889;48.232;10.110;2023-10-08T12:07:47;22.10;67.50
79439;DHT22;68889;48.232;10.110;2023-10-08T12:10:14;22.20;67.10
79439;DHT22;68889;48.232;10.110;2023-10-08T12:12:42;22.30;68.70
79439;DHT22;68889;48.232;10.110;2023-10-08T12:15:11;22.50;65.90
79439;DHT22;68889;48.232;10.110;2023-10-08T12:17:38;22.50;68.00
79439;DHT22;68889;48.232;10.110;2023-10-08T12:20:06;22.70;66.80
79439;DHT22;68889;48.232;10.110;2023-10-08T12:22:52;22.80;65.40
79439;DHT22;68889;48.232;10.110;2023-10-08T12:25:17;22.90;67.20
79439;DHT22;68889;48.232;10.110;2023-10-08T12:27:43;22.90;66.00
79439;DHT22;68889;48.232;10.110;2023-10-08T12:30:10;22.90;66.40
79439;DHT22;68889;48.232;10.110;2023-10-08T12:32:39;23.00;65.20
79439;DHT22;68889;48.232;10.110;2023-10-08T12:35:08;22.90;66.30
79439;DHT22;68889;48.232;10.110;2023-10-08T12:37:40;22.90;65.90
79439;DHT22;68889;48.232;10.110;2023-10-08T12:40:06;22.80;66.50
79439;DHT22;68889;48.232;10.110;2023-10-08T12:42:54;22.80;66.70
79439;DHT22;68889;48.232;10.110;2023-10-08T12:45:20;22.90;66.70
79439;DHT22;68889;48.232;10.110;2023-10-08T12:47:50;22.90;68.10
79439;DHT22;68889;48.232;10.110;2023-10-08T12:50:20;22.90;67.50
79439;DHT22;68889;48.232;10.110;2023-10-08T12:52:57;22.80;65.70
79439;DHT22;68889;48.232;10.110;2023-10-08T12:55:29;22.80;65.90
79439;DHT22;68889;48.232;10.110;2023-10-08T12:57:56;22.80;66.40
79439;DHT22;68889;48.232;10.110;2023-10-08T13:00:31;22.70;68.00
79439;DHT22;68889;48.232;10.110;2023-10-08T13:02:57;22.60;66.50
79439;DHT22;68889;48.232;10.110;2023-10-08T13:05:23;22.60;67.40
79439;DHT22;68889;48.232;10.110;2023-10-08T13:07:56;22.60;66.90
79439;DHT22;68889;48.232;10.110;2023-10-08T13:10:29;22.60;66.90
79439;DHT22;68889;48.232;10.110;2023-10-08T13:12:56;22.50;66.80
79439;DHT22;68889;48.232;10.110;2023-10-08T13:15:23;22.50;68.60
79439;DHT22;68889;48.232;10.110;2023-10-08T13:17:52;22.40;68.50
79439;DHT22;68889;48.232;10.110;2023-10-08T13:20:18;22.30;68.30
79439;DHT22;68889;48.232;10.110;2023-10-08T13:22:44;22.20;69.00
79439;DHT22;68889;48.232;10.110;2023-10-08T13:25:10;22.10;69.00
79439;DHT22;68889;48.232;10.110;2023-10-08T13:27:40;22.10;69.60
79439;DHT22;68889;48.232;10.110;2023-10-08T13:30:07;22.00;70.20
79439;DHT22;68889;48.232;10.110;2023-10-08T13:32:36;22.00;70.20
79439;DHT22;68889;48.232;10.110;2023-10-08T13:35:05;21.90;70.20
79439;DHT22;68889;48.232;10.110;2023-10-08T13:37:36;21.90;69.70
79439;DHT22;68889;48.232;10.110;2023-10-08T13:40:01;21.80;70.30
79439;DHT22;68889;48.232;10.110;2023-10-08T13:42:27;21.70;69.70
79439;DHT22;68889;48.232;10.110;2023-10-08T13:44:56;21.70;70.80
79439;DHT22;68889;48.232;10.110;2023-10-08T13:47:25;21.80;70.80
79439;DHT22;68889;48.232;10.110;2023-10-08T13:49:54;21.80;70.30
79439;DHT22;68889;48.232;10.110;2023-10-08T13:52:20;21.90;70.80
79439;DHT22;68889;48.232;10.110;2023-10-08T13:54:46;22.00;69.90
79439;DHT22;68889;48.232;10.110;2023-10-08T13:57:20;22.10;70.00
79439;DHT22;68889;48.232;10.110;2023-10-08T13:59:47;22.30;70.80
79439;DHT22;68889;48.232;10.110;2023-10-08T14:02:14;22.40;69.30
79439;DHT22;68889;48.232;10.110;2023-10-08T14:04:41;22.30;70.00
79439;DHT22;68889;48.232;10.110;2023-10-08T14:07:09;22.30;69.80
79439;DHT22;68889;48.232;10.110;2023-10-08T14:09:37;22.30;67.90
79439;DHT22;68889;48.232;10.110;2023-10-08T14:12:07;22.30;69.40
79439;DHT22;68889;48.232;10.110;2023-10-08T14:14:33;22.30;69.50
79439;DHT22;68889;48.232;10.110;2023-10-08T14:17:00;22.40;68.00
79439;DHT22;68889;48.232;10.110;2023-10-08T14:19:41;22.30;68.00
79439;DHT22;68889;48.232;10.110;2023-10-08T14:22:25;22.40;69.60
79439;DHT22;68889;48.232;10.110;2023-10-08T14:24:54;22.50;67.10
79439;DHT22;68889;48.232;10.110;2023-10-08T14:27:27;22.70;67.50
79439;DHT22;68889;48.232;10.110;2023-10-08T14:29:59;22.70;65.90
79439;DHT22;68889;48.232;10.110;2023-10-08T14:32:30;22.60;66.30
79439;DHT22;68889;48.232;10.110;2023-10-08T14:34:58;22.60;66.60
79439;DHT22;68889;48.232;10.110;2023-10-08T14:37:24;22.70;66.70
79439;DHT22;68889;48.232;10.110;2023-10-08T14:40:08;22.70;65.90
79439;DHT22;68889;48.232;10.110;2023-10-08T14:42:54;22.70;65.70
79439;DHT22;68889;48.232;10.110;2023-10-08T14:45:33;22.70;67.10
79439;DHT22;68889;48.232;10.110;2023-10-08T14:48:01;22.70;68.60
79439;DHT22;68889;48.232;10.110;2023-10-08T14:50:28;22.80;68.30
79439;DHT22;68889;48.232;10.110;2023-10-08T14:52:57;22.80;67.60
79439;DHT22;68889;48.232;10.110;2023-10-08T14:55:23;22.80;66.50
79439;DHT22;68889;48.232;10.110;2023-10-08T14:57:49;22.70;66.10
79439;DHT22;68889;48.232;10.110;2023-10-08T15:00:18;22.60;66.60
79439;DHT22;68889;48.232;10.110;2023-10-08T15:02:57;22.40;67.70
79439;DHT22;68889;48.232;10.110;2023-10-08T15:05:28;22.30;68.50
79439;DHT22;68889;48.232;10.110;2023-10-08T15:07:57;22.20;69.00
79439;DHT22;68889;48.232;10.110;2023-10-08T15:13:47;22.10;69.30
79439;DHT22;68889;48.232;10.110;2023-10-08T15:16:15;22.10;72.60
79439;DHT22;68889;48.232;10.110;2023-10-08T15:18:41;22.10;73.40
79439;DHT22;68889;48.232;10.110;2023-10-08T15:21:09;22.00;73.80
79439;DHT22;68889;48.232;10.110;2023-10-08T15:23:35;22.00;73.60
79439;DHT22;68889;48.232;10.110;2023-10-08T15:26:04;22.00;74.90
79439;DHT22;68889;48.232;10.110;2023-10-08T15:28:30;22.00;75.60
79439;DHT22;68889;48.232;10.110;2023-10-08T15:30:56;21.90;76.20
79439;DHT22;68889;48.232;10.110;2023-10-08T15:33:22;21.80;77.30
79439;DHT22;68889;48.232;10.110;2023-10-08T15:35:48;21.70;77.40
79439;DHT22;68889;48.232;10.110;2023-10-08T15:38:13;21.70;77.60
79439;DHT22;68889;48.232;10.110;2023-10-08T15:41:15;21.60;77.90
79439;DHT22;68889;48.232;10.110;2023-10-08T15:43:35;21.50;77.00
79439;DHT22;68889;48.232;10.110;2023-10-08T15:46:01;21.40;77.80
79439;DHT22;68889;48.232;10.110;2023-10-08T15:48:27;21.30;78.30
79439;DHT22;68889;48.232;10.110;2023-10-08T15:50:54;21.20;78.00